Weather History for KMDD - May, 2013

Change the Weather History Date:

Sunday, May 19, 2013

  Actual Average (KMAF) Record (KMAF)
Temperature  
Mean Temperature 84 °F 74 °F  
Max Temperature 95 °F 88 °F 103 °F (1996)
Min Temperature 72 °F 61 °F 46 °F (2000)
Cooling Degree Days 18 10  
Month to date cooling degree days 145  
Year to date cooling degree days 253  
Growing Degree Days 34 (Base 50)    
Moisture  
Dew Point 38 °F    
Average Humidity 29    
Maximum Humidity 76    
Minimum Humidity 6    
Precipitation  
Precipitation 0.00 in 0.06 in 1.66 in (1961)
Month to date precipitation 0.88  
Year to date precipitation 3.40  
Sea Level Pressure  
Sea Level Pressure 29.81 in    
Wind  
Wind Speed 12 mph (SW)    
Max Wind Speed 21 mph    
Max Gust Speed 30 mph    
Visibility 10 miles    
Events      
T = Trace of Precipitation, MM = Missing Value Source: NWS Daily Summary

Daily Weather History Graph

Daily Weather History Graph

Search for Another Location

Airport or City:

Trip Planner

Search our weather history database for the weather conditions in past years. The results will help you decide how hot, cold, wet, or windy it might be!

Date:

Astronomy

May. 19, 2013 Rise Set
Actual Time 6:48 AM CDT 8:41 PM CDT
Civil Twilight 6:21 AM CDT 9:09 PM CDT
Nautical Twilight 5:48 AM CDT 9:41 PM CDT
Astronomical Twilight 5:13 AM CDT 10:16 PM CDT
Moon 3:07 PM CDT (5/19) 2:51 AM CDT (5/19)
Length of Visible Light 14h 47m
Length of Day
13h 53m
Waxing Gibbous, 65% of the Moon is Illuminated
May 19
Waxing Gibbous
May 24
Full
May 31
Last Quarter
Jun 8
New
Jun 16
First Quarter

Hourly Weather History & Observations

Time (CDT) Temp. Heat Index Dew Point Humidity Pressure Visibility Wind Dir Wind Speed Gust Speed Precip Events Conditions
12:15 AM 83.3 °F 82.6 °F 56.7 °F 40% 29.82 in 10.0 mi SSW 13.8 mph 18.4 mph N/A   Clear
12:35 AM 82.4 °F 82.2 °F 57.6 °F 43% 29.83 in 10.0 mi SSW 11.5 mph 18.4 mph N/A   Clear
12:55 AM 81.5 °F 81.6 °F 58.1 °F 45% 29.83 in 10.0 mi SSW 11.5 mph 18.4 mph N/A   Clear
1:15 AM 80.6 °F 81.2 °F 59.5 °F 49% 29.82 in 10.0 mi SSW 12.7 mph 19.6 mph N/A   Clear
1:35 AM 80.1 °F 81.0 °F 60.6 °F 51% 29.82 in 10.0 mi SSW 12.7 mph - N/A   Clear
1:55 AM 79.5 °F - 60.8 °F 53% 29.82 in 10.0 mi SSW 10.4 mph - N/A   Clear
2:15 AM 78.8 °F - 61.7 °F 56% 29.82 in 10.0 mi SSW 11.5 mph 17.3 mph N/A   Clear
2:35 AM 78.4 °F - 62.6 °F 58% 29.82 in 10.0 mi SSW 10.4 mph - N/A   Clear
2:55 AM 77.9 °F - 63.1 °F 60% 29.81 in 10.0 mi SSW 11.5 mph - N/A   Clear
3:15 AM 77.5 °F - 63.5 °F 62% 29.81 in 10.0 mi SSW 10.4 mph - N/A   Clear
3:35 AM 77.2 °F - 63.9 °F 63% 29.81 in 10.0 mi SSW 13.8 mph - N/A   Clear
3:55 AM 77.0 °F - 63.9 °F 64% 29.81 in 10.0 mi SSW 11.5 mph - N/A   Clear
4:15 AM 76.5 °F - 64.0 °F 65% 29.81 in 10.0 mi SSW 11.5 mph 18.4 mph N/A   Clear
4:35 AM 76.1 °F - 63.9 °F 66% 29.81 in 10.0 mi SSW 12.7 mph - N/A   Clear
4:55 AM 75.4 °F - 63.9 °F 67% 29.82 in 10.0 mi SSW 10.4 mph - N/A   Clear
5:15 AM 75.2 °F - 63.9 °F 68% 29.82 in 10.0 mi SSW 9.2 mph - N/A   Clear
5:35 AM 74.7 °F - 64.0 °F 69% 29.82 in 10.0 mi SSW 12.7 mph 16.1 mph N/A   Clear
5:55 AM 74.3 °F - 64.0 °F 70% 29.82 in 10.0 mi SSW 10.4 mph - N/A   Clear
6:15 AM 73.4 °F - 63.9 °F 72% 29.82 in 7.0 mi SW 9.2 mph - N/A   Clear
6:35 AM 72.9 °F - 64.0 °F 74% 29.82 in 7.0 mi SW 10.4 mph 16.1 mph N/A   Clear
6:55 AM 72.5 °F - 64.4 °F 76% 29.82 in 7.0 mi SSW 11.5 mph - N/A   Clear
7:15 AM 72.7 °F - 64.2 °F 75% 29.83 in 7.0 mi SSW 12.7 mph - N/A   Clear
7:35 AM 73.4 °F - 62.8 °F 69% 29.83 in 7.0 mi SW 12.7 mph 17.3 mph N/A   Clear
7:55 AM 73.6 °F - 62.8 °F 69% 29.84 in 7.0 mi SW 11.5 mph - N/A   Clear
8:15 AM 75.0 °F - 59.7 °F 59% 29.85 in 10.0 mi SW 9.2 mph 17.3 mph N/A   Clear
8:35 AM 76.5 °F - 56.8 °F 51% 29.85 in 10.0 mi SW 13.8 mph - N/A   Clear
8:55 AM 78.6 °F - 50.7 °F 38% 29.85 in 10.0 mi WSW 11.5 mph 17.3 mph N/A   Clear
9:15 AM 81.5 °F - 39.0 °F 22% 29.86 in 10.0 mi West 12.7 mph - N/A   Clear
9:35 AM 82.6 °F - 29.3 °F 14% 29.87 in 10.0 mi West 13.8 mph 21.9 mph N/A   Clear
9:55 AM 83.3 °F - 27.0 °F 13% 29.87 in 10.0 mi West 16.1 mph - N/A   Clear
10:15 AM 84.4 °F - 25.5 °F 12% 29.87 in 10.0 mi WNW 11.5 mph 18.4 mph N/A   Clear
10:35 AM 85.6 °F - 25.5 °F 11% 29.87 in 10.0 mi WNW 11.5 mph - N/A   Clear
10:55 AM 85.8 °F - 26.1 °F 11% 29.87 in 10.0 mi WNW 8.1 mph - N/A   Clear
11:15 AM 86.4 °F - 25.3 °F 11% 29.86 in 10.0 mi WNW 13.8 mph 21.9 mph N/A   Clear
11:55 AM 88.0 °F - 25.0 °F 10% 29.85 in 10.0 mi West 18.4 mph - N/A   Clear
12:15 PM 89.1 °F - 23.2 °F 9% 29.85 in 10.0 mi WNW 11.5 mph 24.2 mph N/A   Clear
12:35 PM 89.6 °F - 22.5 °F 9% 29.85 in 10.0 mi West 18.4 mph 23.0 mph N/A   Clear
12:55 PM 89.8 °F - 22.8 °F 9% 29.84 in 10.0 mi West 13.8 mph 24.2 mph N/A   Clear
1:15 PM 90.3 °F - 22.8 °F 9% 29.84 in 10.0 mi West 17.3 mph 21.9 mph N/A   Clear
1:35 PM 91.0 °F - 22.1 °F 8% 29.83 in 10.0 mi West 12.7 mph 21.9 mph N/A   Clear
1:55 PM 92.1 °F - 22.1 °F 8% 29.82 in 10.0 mi West 18.4 mph 25.3 mph N/A   Clear
2:15 PM 91.8 °F - 21.2 °F 8% 29.81 in 10.0 mi SW 15.0 mph 25.3 mph N/A   Clear
2:35 PM 91.6 °F - 21.7 °F 8% 29.81 in 10.0 mi West 11.5 mph 21.9 mph N/A   Clear
2:55 PM 92.3 °F - 22.6 °F 8% 29.80 in 10.0 mi WNW 18.4 mph 25.3 mph N/A   Clear
3:15 PM 92.3 °F - 21.9 °F 8% 29.79 in 10.0 mi WSW 15.0 mph 19.6 mph N/A   Clear
3:35 PM 93.4 °F - 21.9 °F 8% 29.78 in 10.0 mi WSW 15.0 mph 20.7 mph N/A   Clear
3:55 PM 93.9 °F - 21.7 °F 7% 29.77 in 10.0 mi WSW 15.0 mph 20.7 mph N/A   Clear
4:15 PM 95.2 °F - 20.3 °F 7% 29.76 in 10.0 mi WSW 16.1 mph 24.2 mph N/A   Clear
4:35 PM 95.4 °F - 19.6 °F 6% 29.75 in 10.0 mi WSW 17.3 mph 23.0 mph N/A   Clear
4:55 PM 94.8 °F - 20.3 °F 7% 29.75 in 10.0 mi WSW 12.7 mph 24.2 mph N/A   Clear
5:15 PM 94.6 °F - 19.0 °F 6% 29.74 in 10.0 mi WSW 20.7 mph 29.9 mph N/A   Clear
5:35 PM 94.8 °F - 19.9 °F 7% 29.74 in 10.0 mi West 15.0 mph 27.6 mph N/A   Clear
5:55 PM 95.0 °F - 21.0 °F 7% 29.74 in 10.0 mi West 16.1 mph 24.2 mph N/A   Clear
6:15 PM 95.0 °F - 21.4 °F 7% 29.73 in 10.0 mi WSW 20.7 mph 29.9 mph N/A   Clear
6:35 PM 94.5 °F - 20.7 °F 7% 29.73 in 10.0 mi WSW 20.7 mph 26.5 mph N/A   Clear
6:55 PM 94.1 °F - 19.0 °F 7% 29.73 in 10.0 mi WSW 17.3 mph 25.3 mph N/A   Clear
7:15 PM 93.7 °F - 20.1 °F 7% 29.73 in 10.0 mi SW 13.8 mph 21.9 mph N/A   Clear
7:35 PM 93.0 °F - 21.0 °F 7% 29.73 in 10.0 mi WSW 16.1 mph 24.2 mph N/A   Clear
7:55 PM 92.3 °F - 20.8 °F 7% 29.74 in 10.0 mi WSW 16.1 mph 23.0 mph N/A   Clear
8:15 PM 91.4 °F - 20.5 °F 8% 29.75 in 10.0 mi West 12.7 mph 19.6 mph N/A   Clear
8:55 PM 88.3 °F - 20.8 °F 8% 29.76 in 10.0 mi WSW 6.9 mph - N/A   Clear
9:15 PM 86.9 °F - 21.2 °F 9% 29.76 in 10.0 mi WSW 6.9 mph - N/A   Clear
9:35 PM 85.5 °F - 21.2 °F 9% 29.77 in 10.0 mi SW 4.6 mph - N/A   Clear
9:55 PM 84.4 °F - 23.4 °F 11% 29.77 in 10.0 mi SSW 4.6 mph - N/A   Clear
10:15 PM 83.7 °F - 21.9 °F 10% 29.78 in 10.0 mi SW 3.5 mph - N/A   Clear
10:35 PM 81.5 °F - 22.1 °F 11% 29.79 in 10.0 mi WSW 4.6 mph - N/A   Clear
10:55 PM 80.8 °F - 21.9 °F 11% 29.80 in 10.0 mi SW 5.8 mph - N/A   Clear
11:15 PM 81.9 °F - 22.3 °F 11% 29.80 in 10.0 mi SSW 4.6 mph - N/A   Clear
11:35 PM 78.8 °F - 23.9 °F 13% 29.80 in 10.0 mi SW 3.5 mph - N/A   Clear
11:55 PM 77.5 °F - 22.8 °F 13% 29.80 in 10.0 mi SW 3.5 mph - N/A   Clear